sensor_id;sensor_type;location;lat;lon;timestamp;P1;durP1;ratioP1;P2;durP2;ratioP2
51810;SDS011;52468;40.116;18.296;2023-02-08T00:01:11;12.05;;;6.28;;
51810;SDS011;52468;40.116;18.296;2023-02-08T00:03:40;11.88;;;6.32;;
51810;SDS011;52468;40.116;18.296;2023-02-08T00:06:09;9.60;;;5.95;;
51810;SDS011;52468;40.116;18.296;2023-02-08T00:08:37;8.55;;;5.80;;
51810;SDS011;52468;40.116;18.296;2023-02-08T00:11:05;8.07;;;5.38;;
51810;SDS011;52468;40.116;18.296;2023-02-08T00:13:37;7.25;;;5.13;;
51810;SDS011;52468;40.116;18.296;2023-02-08T00:16:08;10.15;;;4.93;;
51810;SDS011;52468;40.116;18.296;2023-02-08T00:18:36;7.88;;;4.45;;
51810;SDS011;52468;40.116;18.296;2023-02-08T00:21:07;9.02;;;4.22;;
51810;SDS011;52468;40.116;18.296;2023-02-08T00:23:40;11.48;;;6.80;;
51810;SDS011;52468;40.116;18.296;2023-02-08T00:26:08;7.20;;;4.30;;
51810;SDS011;52468;40.116;18.296;2023-02-08T00:28:37;5.97;;;3.95;;
51810;SDS011;52468;40.116;18.296;2023-02-08T00:31:05;5.28;;;4.35;;
51810;SDS011;52468;40.116;18.296;2023-02-08T00:33:33;9.07;;;4.63;;
51810;SDS011;52468;40.116;18.296;2023-02-08T00:36:02;6.85;;;3.72;;
51810;SDS011;52468;40.116;18.296;2023-02-08T00:38:33;6.57;;;3.50;;
51810;SDS011;52468;40.116;18.296;2023-02-08T00:41:01;6.90;;;3.85;;
51810;SDS011;52468;40.116;18.296;2023-02-08T00:43:29;5.95;;;3.55;;
51810;SDS011;52468;40.116;18.296;2023-02-08T00:45:57;9.95;;;4.07;;
51810;SDS011;52468;40.116;18.296;2023-02-08T00:48:26;4.15;;;2.83;;
51810;SDS011;52468;40.116;18.296;2023-02-08T00:51:02;7.03;;;3.30;;
51810;SDS011;52468;40.116;18.296;2023-02-08T00:53:40;5.25;;;4.70;;
51810;SDS011;52468;40.116;18.296;2023-02-08T00:56:10;9.25;;;4.43;;
51810;SDS011;52468;40.116;18.296;2023-02-08T00:58:40;4.10;;;2.85;;
51810;SDS011;52468;40.116;18.296;2023-02-08T01:01:09;7.32;;;3.85;;
51810;SDS011;52468;40.116;18.296;2023-02-08T01:03:38;10.50;;;3.72;;
51810;SDS011;52468;40.116;18.296;2023-02-08T01:06:09;4.93;;;4.15;;
51810;SDS011;52468;40.116;18.296;2023-02-08T01:08:40;8.50;;;4.10;;
51810;SDS011;52468;40.116;18.296;2023-02-08T01:11:09;4.60;;;3.92;;
51810;SDS011;52468;40.116;18.296;2023-02-08T01:13:39;8.93;;;4.72;;
51810;SDS011;52468;40.116;18.296;2023-02-08T01:16:12;9.88;;;4.80;;
51810;SDS011;52468;40.116;18.296;2023-02-08T01:18:42;7.43;;;3.70;;
51810;SDS011;52468;40.116;18.296;2023-02-08T01:21:12;7.18;;;3.25;;
51810;SDS011;52468;40.116;18.296;2023-02-08T01:23:43;4.57;;;4.13;;
51810;SDS011;52468;40.116;18.296;2023-02-08T01:26:12;6.75;;;3.40;;
51810;SDS011;52468;40.116;18.296;2023-02-08T01:28:40;5.72;;;3.33;;
51810;SDS011;52468;40.116;18.296;2023-02-08T01:31:13;6.70;;;3.53;;
51810;SDS011;52468;40.116;18.296;2023-02-08T01:33:43;3.08;;;2.80;;
51810;SDS011;52468;40.116;18.296;2023-02-08T01:36:11;3.88;;;2.80;;
51810;SDS011;52468;40.116;18.296;2023-02-08T01:38:41;9.98;;;4.20;;
51810;SDS011;52468;40.116;18.296;2023-02-08T01:41:12;7.28;;;4.25;;
51810;SDS011;52468;40.116;18.296;2023-02-08T01:43:59;4.43;;;3.20;;
51810;SDS011;52468;40.116;18.296;2023-02-08T01:46:39;9.68;;;3.60;;
51810;SDS011;52468;40.116;18.296;2023-02-08T01:49:13;5.03;;;2.50;;
51810;SDS011;52468;40.116;18.296;2023-02-08T01:52:05;6.22;;;3.42;;
51810;SDS011;52468;40.116;18.296;2023-02-08T01:54:38;4.47;;;3.85;;
51810;SDS011;52468;40.116;18.296;2023-02-08T01:57:12;6.68;;;4.05;;
51810;SDS011;52468;40.116;18.296;2023-02-08T01:59:47;6.78;;;3.55;;
51810;SDS011;52468;40.116;18.296;2023-02-08T02:02:21;5.18;;;2.60;;
51810;SDS011;52468;40.116;18.296;2023-02-08T02:04:52;6.00;;;3.15;;
51810;SDS011;52468;40.116;18.296;2023-02-08T02:07:20;6.18;;;3.78;;
51810;SDS011;52468;40.116;18.296;2023-02-08T02:09:55;9.65;;;3.67;;
51810;SDS011;52468;40.116;18.296;2023-02-08T02:12:25;5.95;;;4.18;;
51810;SDS011;52468;40.116;18.296;2023-02-08T02:14:54;5.88;;;3.67;;
51810;SDS011;52468;40.116;18.296;2023-02-08T02:17:22;7.32;;;4.47;;
51810;SDS011;52468;40.116;18.296;2023-02-08T02:20:00;4.72;;;3.05;;
51810;SDS011;52468;40.116;18.296;2023-02-08T02:34:51;5.50;;;3.25;;
51810;SDS011;52468;40.116;18.296;2023-02-08T02:43:22;5.00;;;3.42;;
51810;SDS011;52468;40.116;18.296;2023-02-08T02:49:05;9.02;;;4.50;;
51810;SDS011;52468;40.116;18.296;2023-02-08T02:51:56;7.95;;;3.92;;
51810;SDS011;52468;40.116;18.296;2023-02-08T02:54:47;10.65;;;4.55;;
51810;SDS011;52468;40.116;18.296;2023-02-08T02:57:20;7.20;;;4.38;;
51810;SDS011;52468;40.116;18.296;2023-02-08T02:59:52;7.10;;;3.72;;
51810;SDS011;52468;40.116;18.296;2023-02-08T03:02:20;8.80;;;4.68;;
51810;SDS011;52468;40.116;18.296;2023-02-08T03:04:50;7.13;;;4.50;;
51810;SDS011;52468;40.116;18.296;2023-02-08T03:10:17;5.97;;;3.70;;
51810;SDS011;52468;40.116;18.296;2023-02-08T03:18:35;9.68;;;4.10;;
51810;SDS011;52468;40.116;18.296;2023-02-08T03:26:53;10.82;;;4.57;;
51810;SDS011;52468;40.116;18.296;2023-02-08T03:32:21;9.23;;;4.55;;
51810;SDS011;52468;40.116;18.296;2023-02-08T03:38:00;9.45;;;4.35;;
51810;SDS011;52468;40.116;18.296;2023-02-08T03:40:34;9.75;;;4.78;;
51810;SDS011;52468;40.116;18.296;2023-02-08T03:43:10;10.18;;;4.45;;
51810;SDS011;52468;40.116;18.296;2023-02-08T03:45:49;6.57;;;3.88;;
51810;SDS011;52468;40.116;18.296;2023-02-08T03:48:28;6.28;;;3.90;;
51810;SDS011;52468;40.116;18.296;2023-02-08T03:50:59;6.63;;;4.80;;
51810;SDS011;52468;40.116;18.296;2023-02-08T03:53:29;5.78;;;4.38;;
51810;SDS011;52468;40.116;18.296;2023-02-08T03:56:06;9.95;;;4.93;;
51810;SDS011;52468;40.116;18.296;2023-02-08T03:58:45;9.23;;;4.88;;
51810;SDS011;52468;40.116;18.296;2023-02-08T04:01:17;9.25;;;4.57;;
51810;SDS011;52468;40.116;18.296;2023-02-08T04:03:51;7.68;;;4.20;;
51810;SDS011;52468;40.116;18.296;2023-02-08T04:06:20;8.25;;;3.78;;
51810;SDS011;52468;40.116;18.296;2023-02-08T04:08:49;9.95;;;5.70;;
51810;SDS011;52468;40.116;18.296;2023-02-08T04:11:17;8.32;;;5.32;;
51810;SDS011;52468;40.116;18.296;2023-02-08T04:13:45;6.82;;;4.25;;
51810;SDS011;52468;40.116;18.296;2023-02-08T04:16:13;6.28;;;4.32;;
51810;SDS011;52468;40.116;18.296;2023-02-08T04:18:41;10.70;;;4.53;;
51810;SDS011;52468;40.116;18.296;2023-02-08T04:21:09;10.52;;;6.57;;
51810;SDS011;52468;40.116;18.296;2023-02-08T04:23:36;8.40;;;4.22;;
51810;SDS011;52468;40.116;18.296;2023-02-08T04:26:04;8.00;;;4.70;;
51810;SDS011;52468;40.116;18.296;2023-02-08T04:28:34;11.48;;;5.15;;
51810;SDS011;52468;40.116;18.296;2023-02-08T04:31:02;8.98;;;5.80;;
51810;SDS011;52468;40.116;18.296;2023-02-08T04:33:30;12.77;;;4.88;;
51810;SDS011;52468;40.116;18.296;2023-02-08T04:35:58;5.97;;;3.92;;
51810;SDS011;52468;40.116;18.296;2023-02-08T04:38:26;5.25;;;3.40;;
51810;SDS011;52468;40.116;18.296;2023-02-08T04:40:54;7.00;;;5.40;;
51810;SDS011;52468;40.116;18.296;2023-02-08T04:43:22;8.38;;;3.97;;
51810;SDS011;52468;40.116;18.296;2023-02-08T04:45:49;6.07;;;4.15;;
51810;SDS011;52468;40.116;18.296;2023-02-08T04:48:18;9.23;;;4.38;;
51810;SDS011;52468;40.116;18.296;2023-02-08T04:50:46;4.90;;;4.10;;
51810;SDS011;52468;40.116;18.296;2023-02-08T04:53:14;10.35;;;5.00;;
51810;SDS011;52468;40.116;18.296;2023-02-08T04:55:42;9.73;;;3.95;;
51810;SDS011;52468;40.116;18.296;2023-02-08T04:58:10;9.15;;;4.50;;
51810;SDS011;52468;40.116;18.296;2023-02-08T05:00:37;9.13;;;4.85;;
51810;SDS011;52468;40.116;18.296;2023-02-08T05:03:06;11.60;;;5.63;;
51810;SDS011;52468;40.116;18.296;2023-02-08T05:05:34;7.70;;;4.05;;
51810;SDS011;52468;40.116;18.296;2023-02-08T05:08:02;9.52;;;4.00;;
51810;SDS011;52468;40.116;18.296;2023-02-08T05:10:30;14.90;;;5.88;;
51810;SDS011;52468;40.116;18.296;2023-02-08T05:12:58;7.40;;;5.18;;
51810;SDS011;52468;40.116;18.296;2023-02-08T05:15:25;11.50;;;5.90;;
51810;SDS011;52468;40.116;18.296;2023-02-08T05:17:53;10.02;;;5.85;;
51810;SDS011;52468;40.116;18.296;2023-02-08T05:20:21;10.02;;;5.60;;
51810;SDS011;52468;40.116;18.296;2023-02-08T05:22:49;9.40;;;5.65;;
51810;SDS011;52468;40.116;18.296;2023-02-08T05:25:16;12.82;;;5.63;;
51810;SDS011;52468;40.116;18.296;2023-02-08T05:27:44;10.95;;;6.25;;
51810;SDS011;52468;40.116;18.296;2023-02-08T05:30:12;10.43;;;5.97;;
51810;SDS011;52468;40.116;18.296;2023-02-08T05:32:40;10.38;;;4.75;;
51810;SDS011;52468;40.116;18.296;2023-02-08T05:35:08;11.27;;;5.72;;
51810;SDS011;52468;40.116;18.296;2023-02-08T05:37:36;9.90;;;5.78;;
51810;SDS011;52468;40.116;18.296;2023-02-08T05:40:04;9.18;;;6.22;;
51810;SDS011;52468;40.116;18.296;2023-02-08T05:42:32;7.88;;;5.05;;
51810;SDS011;52468;40.116;18.296;2023-02-08T05:44:59;10.07;;;5.93;;
51810;SDS011;52468;40.116;18.296;2023-02-08T05:47:27;10.23;;;5.20;;
51810;SDS011;52468;40.116;18.296;2023-02-08T05:49:55;8.15;;;5.38;;
51810;SDS011;52468;40.116;18.296;2023-02-08T05:52:23;15.10;;;3.05;;
51810;SDS011;52468;40.116;18.296;2023-02-08T05:54:51;3.97;;;2.33;;
51810;SDS011;52468;40.116;18.296;2023-02-08T05:57:19;6.38;;;2.50;;
51810;SDS011;52468;40.116;18.296;2023-02-08T05:59:46;4.90;;;1.58;;
51810;SDS011;52468;40.116;18.296;2023-02-08T06:02:15;4.25;;;1.77;;
51810;SDS011;52468;40.116;18.296;2023-02-08T06:04:42;3.90;;;1.67;;
51810;SDS011;52468;40.116;18.296;2023-02-08T06:07:12;2.13;;;1.73;;
51810;SDS011;52468;40.116;18.296;2023-02-08T06:09:39;5.18;;;1.85;;
51810;SDS011;52468;40.116;18.296;2023-02-08T06:12:07;3.38;;;2.00;;
51810;SDS011;52468;40.116;18.296;2023-02-08T06:14:35;1.92;;;1.48;;
51810;SDS011;52468;40.116;18.296;2023-02-08T06:17:03;4.18;;;2.47;;
51810;SDS011;52468;40.116;18.296;2023-02-08T06:19:31;5.07;;;2.20;;
51810;SDS011;52468;40.116;18.296;2023-02-08T06:21:59;3.50;;;2.35;;
51810;SDS011;52468;40.116;18.296;2023-02-08T06:24:26;2.17;;;1.90;;
51810;SDS011;52468;40.116;18.296;2023-02-08T06:26:55;4.50;;;2.08;;
51810;SDS011;52468;40.116;18.296;2023-02-08T06:29:23;2.65;;;2.25;;
51810;SDS011;52468;40.116;18.296;2023-02-08T06:31:51;2.75;;;2.08;;
51810;SDS011;52468;40.116;18.296;2023-02-08T06:34:19;5.43;;;2.95;;
51810;SDS011;52468;40.116;18.296;2023-02-08T06:36:47;3.17;;;2.55;;
51810;SDS011;52468;40.116;18.296;2023-02-08T06:39:15;3.22;;;2.92;;
51810;SDS011;52468;40.116;18.296;2023-02-08T06:41:43;2.53;;;1.92;;
51810;SDS011;52468;40.116;18.296;2023-02-08T06:44:11;2.53;;;2.10;;
51810;SDS011;52468;40.116;18.296;2023-02-08T06:46:38;4.45;;;2.15;;
51810;SDS011;52468;40.116;18.296;2023-02-08T06:49:07;3.72;;;2.40;;
51810;SDS011;52468;40.116;18.296;2023-02-08T06:51:35;4.72;;;1.80;;
51810;SDS011;52468;40.116;18.296;2023-02-08T06:54:02;12.20;;;2.17;;
51810;SDS011;52468;40.116;18.296;2023-02-08T06:56:30;2.92;;;2.00;;
51810;SDS011;52468;40.116;18.296;2023-02-08T06:58:58;2.05;;;1.50;;
51810;SDS011;52468;40.116;18.296;2023-02-08T07:01:26;4.15;;;2.47;;
51810;SDS011;52468;40.116;18.296;2023-02-08T07:03:54;5.55;;;2.60;;
51810;SDS011;52468;40.116;18.296;2023-02-08T07:06:22;2.55;;;2.03;;
51810;SDS011;52468;40.116;18.296;2023-02-08T07:08:49;3.47;;;2.53;;
51810;SDS011;52468;40.116;18.296;2023-02-08T07:11:18;3.80;;;2.35;;
51810;SDS011;52468;40.116;18.296;2023-02-08T07:13:48;2.60;;;2.17;;
51810;SDS011;52468;40.116;18.296;2023-02-08T07:16:17;4.68;;;2.58;;
51810;SDS011;52468;40.116;18.296;2023-02-08T07:18:46;3.35;;;2.50;;
51810;SDS011;52468;40.116;18.296;2023-02-08T07:21:14;2.47;;;2.00;;
51810;SDS011;52468;40.116;18.296;2023-02-08T07:23:41;3.80;;;2.78;;
51810;SDS011;52468;40.116;18.296;2023-02-08T07:26:10;2.10;;;1.90;;
51810;SDS011;52468;40.116;18.296;2023-02-08T07:28:40;2.65;;;2.03;;
51810;SDS011;52468;40.116;18.296;2023-02-08T07:31:10;2.83;;;1.83;;
51810;SDS011;52468;40.116;18.296;2023-02-08T07:33:40;4.07;;;1.92;;
51810;SDS011;52468;40.116;18.296;2023-02-08T07:36:08;4.60;;;2.55;;
51810;SDS011;52468;40.116;18.296;2023-02-08T07:38:37;3.63;;;2.65;;
51810;SDS011;52468;40.116;18.296;2023-02-08T07:41:06;3.45;;;2.58;;
51810;SDS011;52468;40.116;18.296;2023-02-08T07:43:40;4.13;;;2.65;;
51810;SDS011;52468;40.116;18.296;2023-02-08T07:46:16;5.53;;;3.38;;
51810;SDS011;52468;40.116;18.296;2023-02-08T07:48:46;5.97;;;3.80;;
51810;SDS011;52468;40.116;18.296;2023-02-08T07:51:16;5.90;;;3.33;;
51810;SDS011;52468;40.116;18.296;2023-02-08T07:53:44;4.50;;;3.30;;
51810;SDS011;52468;40.116;18.296;2023-02-08T07:56:11;6.55;;;4.20;;
51810;SDS011;52468;40.116;18.296;2023-02-08T07:58:39;5.45;;;4.22;;
51810;SDS011;52468;40.116;18.296;2023-02-08T08:01:07;5.80;;;3.72;;
51810;SDS011;52468;40.116;18.296;2023-02-08T08:03:47;4.70;;;3.78;;
51810;SDS011;52468;40.116;18.296;2023-02-08T08:06:17;5.18;;;3.15;;
51810;SDS011;52468;40.116;18.296;2023-02-08T08:08:46;6.50;;;3.80;;
51810;SDS011;52468;40.116;18.296;2023-02-08T08:11:15;6.40;;;4.38;;
51810;SDS011;52468;40.116;18.296;2023-02-08T08:13:44;7.50;;;5.40;;
51810;SDS011;52468;40.116;18.296;2023-02-08T08:16:12;6.93;;;4.63;;
51810;SDS011;52468;40.116;18.296;2023-02-08T08:18:40;8.23;;;4.97;;
51810;SDS011;52468;40.116;18.296;2023-02-08T08:21:08;8.20;;;5.13;;
51810;SDS011;52468;40.116;18.296;2023-02-08T08:23:36;10.30;;;5.72;;
51810;SDS011;52468;40.116;18.296;2023-02-08T08:26:08;10.10;;;6.53;;
51810;SDS011;52468;40.116;18.296;2023-02-08T08:28:37;14.48;;;8.75;;
51810;SDS011;52468;40.116;18.296;2023-02-08T08:31:09;15.43;;;9.20;;
51810;SDS011;52468;40.116;18.296;2023-02-08T08:33:39;13.63;;;7.77;;
51810;SDS011;52468;40.116;18.296;2023-02-08T08:36:07;10.20;;;7.30;;
51810;SDS011;52468;40.116;18.296;2023-02-08T08:38:35;10.20;;;7.70;;
51810;SDS011;52468;40.116;18.296;2023-02-08T08:41:08;13.00;;;9.63;;
51810;SDS011;52468;40.116;18.296;2023-02-08T08:43:41;9.43;;;6.73;;
51810;SDS011;52468;40.116;18.296;2023-02-08T08:46:09;11.20;;;8.33;;
51810;SDS011;52468;40.116;18.296;2023-02-08T08:48:37;13.13;;;8.63;;
51810;SDS011;52468;40.116;18.296;2023-02-08T08:51:05;15.43;;;9.67;;
51810;SDS011;52468;40.116;18.296;2023-02-08T08:53:34;13.30;;;8.60;;
51810;SDS011;52468;40.116;18.296;2023-02-08T08:56:03;8.40;;;6.23;;
51810;SDS011;52468;40.116;18.296;2023-02-08T08:58:31;11.33;;;6.73;;
51810;SDS011;52468;40.116;18.296;2023-02-08T09:00:59;12.03;;;7.00;;
51810;SDS011;52468;40.116;18.296;2023-02-08T09:03:27;11.10;;;6.33;;
51810;SDS011;52468;40.116;18.296;2023-02-08T09:05:55;7.80;;;5.37;;
51810;SDS011;52468;40.116;18.296;2023-02-08T09:08:23;8.70;;;5.97;;
51810;SDS011;52468;40.116;18.296;2023-02-08T09:10:51;8.03;;;5.07;;
51810;SDS011;52468;40.116;18.296;2023-02-08T09:13:19;9.07;;;5.50;;
51810;SDS011;52468;40.116;18.296;2023-02-08T09:15:47;9.03;;;4.60;;
51810;SDS011;52468;40.116;18.296;2023-02-08T09:18:16;7.53;;;5.27;;
51810;SDS011;52468;40.116;18.296;2023-02-08T09:20:43;6.10;;;4.50;;
51810;SDS011;52468;40.116;18.296;2023-02-08T09:23:11;6.20;;;3.03;;
51810;SDS011;52468;40.116;18.296;2023-02-08T09:25:40;5.73;;;3.60;;
51810;SDS011;52468;40.116;18.296;2023-02-08T09:28:08;6.27;;;3.93;;
51810;SDS011;52468;40.116;18.296;2023-02-08T09:30:36;3.83;;;2.10;;
51810;SDS011;52468;40.116;18.296;2023-02-08T09:33:04;4.00;;;2.57;;
51810;SDS011;52468;40.116;18.296;2023-02-08T09:35:31;3.80;;;3.17;;
51810;SDS011;52468;40.116;18.296;2023-02-08T09:37:59;4.00;;;2.60;;
51810;SDS011;52468;40.116;18.296;2023-02-08T09:40:37;4.10;;;3.00;;
51810;SDS011;52468;40.116;18.296;2023-02-08T09:43:20;7.00;;;3.30;;
51810;SDS011;52468;40.116;18.296;2023-02-08T09:46:03;6.38;;;3.47;;
51810;SDS011;52468;40.116;18.296;2023-02-08T09:48:37;3.80;;;2.60;;
51810;SDS011;52468;40.116;18.296;2023-02-08T09:54:01;4.37;;;3.43;;
51810;SDS011;52468;40.116;18.296;2023-02-08T09:56:45;8.00;;;3.37;;
51810;SDS011;52468;40.116;18.296;2023-02-08T09:59:16;3.90;;;2.93;;
51810;SDS011;52468;40.116;18.296;2023-02-08T10:01:49;5.13;;;3.23;;
51810;SDS011;52468;40.116;18.296;2023-02-08T10:04:23;5.57;;;3.47;;
51810;SDS011;52468;40.116;18.296;2023-02-08T10:07:11;5.67;;;3.07;;
51810;SDS011;52468;40.116;18.296;2023-02-08T10:09:39;5.43;;;2.30;;
51810;SDS011;52468;40.116;18.296;2023-02-08T10:20:59;6.53;;;3.03;;
51810;SDS011;52468;40.116;18.296;2023-02-08T10:26:13;3.70;;;2.90;;
51810;SDS011;52468;40.116;18.296;2023-02-08T10:29:11;3.33;;;2.07;;
51810;SDS011;52468;40.116;18.296;2023-02-08T10:34:53;2.50;;;2.23;;
51810;SDS011;52468;40.116;18.296;2023-02-08T10:37:27;4.87;;;2.57;;
51810;SDS011;52468;40.116;18.296;2023-02-08T10:40:48;3.93;;;2.20;;
51810;SDS011;52468;40.116;18.296;2023-02-08T10:43:04;4.67;;;3.07;;
51810;SDS011;52468;40.116;18.296;2023-02-08T10:45:47;2.93;;;2.20;;
51810;SDS011;52468;40.116;18.296;2023-02-08T10:51:15;3.20;;;1.77;;
51810;SDS011;52468;40.116;18.296;2023-02-08T10:53:46;2.20;;;1.50;;
51810;SDS011;52468;40.116;18.296;2023-02-08T10:56:25;3.03;;;2.17;;
51810;SDS011;52468;40.116;18.296;2023-02-08T10:59:06;3.53;;;2.50;;
51810;SDS011;52468;40.116;18.296;2023-02-08T11:01:55;3.17;;;2.20;;
51810;SDS011;52468;40.116;18.296;2023-02-08T11:04:24;4.63;;;2.27;;
51810;SDS011;52468;40.116;18.296;2023-02-08T11:06:52;6.13;;;2.10;;
51810;SDS011;52468;40.116;18.296;2023-02-08T11:09:21;13.03;;;6.00;;
51810;SDS011;52468;40.116;18.296;2023-02-08T11:11:50;13.97;;;6.57;;
51810;SDS011;52468;40.116;18.296;2023-02-08T11:14:21;10.07;;;4.40;;
51810;SDS011;52468;40.116;18.296;2023-02-08T11:17:27;8.57;;;3.87;;
51810;SDS011;52468;40.116;18.296;2023-02-08T11:19:59;21.93;;;12.17;;
51810;SDS011;52468;40.116;18.296;2023-02-08T11:22:27;9.73;;;4.80;;
51810;SDS011;52468;40.116;18.296;2023-02-08T11:25:01;15.93;;;7.03;;
51810;SDS011;52468;40.116;18.296;2023-02-08T11:27:33;5.00;;;3.87;;
51810;SDS011;52468;40.116;18.296;2023-02-08T11:30:16;9.63;;;3.77;;
51810;SDS011;52468;40.116;18.296;2023-02-08T11:32:48;5.33;;;3.93;;
51810;SDS011;52468;40.116;18.296;2023-02-08T11:35:36;3.13;;;1.90;;
51810;SDS011;52468;40.116;18.296;2023-02-08T11:38:04;3.40;;;2.47;;
51810;SDS011;52468;40.116;18.296;2023-02-08T11:40:36;5.07;;;3.20;;
51810;SDS011;52468;40.116;18.296;2023-02-08T11:43:19;4.83;;;2.07;;
51810;SDS011;52468;40.116;18.296;2023-02-08T11:45:56;10.60;;;6.23;;
51810;SDS011;52468;40.116;18.296;2023-02-08T11:48:33;6.23;;;3.10;;
51810;SDS011;52468;40.116;18.296;2023-02-08T11:51:02;4.17;;;2.90;;
51810;SDS011;52468;40.116;18.296;2023-02-08T11:53:33;6.10;;;4.10;;
51810;SDS011;52468;40.116;18.296;2023-02-08T11:56:10;4.33;;;2.83;;
51810;SDS011;52468;40.116;18.296;2023-02-08T11:59:04;3.17;;;2.70;;
51810;SDS011;52468;40.116;18.296;2023-02-08T12:01:41;2.20;;;2.00;;
51810;SDS011;52468;40.116;18.296;2023-02-08T12:04:10;3.10;;;2.73;;
51810;SDS011;52468;40.116;18.296;2023-02-08T12:15:31;8.50;;;6.70;;
51810;SDS011;52468;40.116;18.296;2023-02-08T12:20:43;10.83;;;5.40;;
51810;SDS011;52468;40.116;18.296;2023-02-08T12:23:55;5.13;;;3.40;;
51810;SDS011;52468;40.116;18.296;2023-02-08T12:26:17;11.07;;;7.83;;
51810;SDS011;52468;40.116;18.296;2023-02-08T12:44:05;8.53;;;5.23;;
51810;SDS011;52468;40.116;18.296;2023-02-08T12:52:11;6.30;;;3.67;;
51810;SDS011;52468;40.116;18.296;2023-02-08T12:55:11;6.40;;;4.27;;
51810;SDS011;52468;40.116;18.296;2023-02-08T12:57:45;8.00;;;3.37;;
51810;SDS011;52468;40.116;18.296;2023-02-08T13:00:17;4.83;;;3.43;;
51810;SDS011;52468;40.116;18.296;2023-02-08T13:02:50;11.67;;;7.83;;
51810;SDS011;52468;40.116;18.296;2023-02-08T13:05:25;8.50;;;5.07;;
51810;SDS011;52468;40.116;18.296;2023-02-08T13:08:31;6.27;;;3.30;;
51810;SDS011;52468;40.116;18.296;2023-02-08T13:10:59;4.97;;;2.77;;
51810;SDS011;52468;40.116;18.296;2023-02-08T13:13:47;9.40;;;6.50;;
51810;SDS011;52468;40.116;18.296;2023-02-08T13:16:23;8.10;;;4.97;;
51810;SDS011;52468;40.116;18.296;2023-02-08T13:19:23;4.80;;;2.83;;
51810;SDS011;52468;40.116;18.296;2023-02-08T13:21:58;10.33;;;7.87;;
51810;SDS011;52468;40.116;18.296;2023-02-08T13:27:02;5.40;;;3.03;;
51810;SDS011;52468;40.116;18.296;2023-02-08T13:29:34;7.00;;;2.90;;
51810;SDS011;52468;40.116;18.296;2023-02-08T13:32:05;5.70;;;3.23;;
51810;SDS011;52468;40.116;18.296;2023-02-08T13:34:41;5.22;;;3.63;;
51810;SDS011;52468;40.116;18.296;2023-02-08T13:37:24;7.87;;;5.00;;
51810;SDS011;52468;40.116;18.296;2023-02-08T13:40:19;22.30;;;6.87;;
51810;SDS011;52468;40.116;18.296;2023-02-08T13:42:48;4.57;;;2.30;;
51810;SDS011;52468;40.116;18.296;2023-02-08T13:48:05;4.53;;;2.27;;
51810;SDS011;52468;40.116;18.296;2023-02-08T13:53:08;3.80;;;2.07;;
51810;SDS011;52468;40.116;18.296;2023-02-08T13:56:10;3.70;;;2.70;;
51810;SDS011;52468;40.116;18.296;2023-02-08T14:01:19;56.33;;;10.60;;
51810;SDS011;52468;40.116;18.296;2023-02-08T14:06:35;10.70;;;4.00;;
51810;SDS011;52468;40.116;18.296;2023-02-08T14:12:05;6.37;;;4.27;;
51810;SDS011;52468;40.116;18.296;2023-02-08T14:14:39;6.60;;;3.77;;
51810;SDS011;52468;40.116;18.296;2023-02-08T14:19:41;10.48;;;3.05;;
51810;SDS011;52468;40.116;18.296;2023-02-08T14:24:44;5.50;;;4.30;;
51810;SDS011;52468;40.116;18.296;2023-02-08T14:27:26;7.43;;;6.47;;
51810;SDS011;52468;40.116;18.296;2023-02-08T14:32:37;2.23;;;1.87;;
51810;SDS011;52468;40.116;18.296;2023-02-08T14:35:08;4.30;;;2.75;;
51810;SDS011;52468;40.116;18.296;2023-02-08T14:37:48;2.20;;;2.00;;
51810;SDS011;52468;40.116;18.296;2023-02-08T14:40:53;4.07;;;2.73;;
51810;SDS011;52468;40.116;18.296;2023-02-08T14:45:56;4.72;;;3.67;;
51810;SDS011;52468;40.116;18.296;2023-02-08T14:48:27;9.43;;;4.40;;
51810;SDS011;52468;40.116;18.296;2023-02-08T14:53:45;5.77;;;5.37;;
51810;SDS011;52468;40.116;18.296;2023-02-08T14:56:27;14.03;;;8.70;;
51810;SDS011;52468;40.116;18.296;2023-02-08T14:59:06;11.47;;;7.87;;
51810;SDS011;52468;40.116;18.296;2023-02-08T15:04:11;7.30;;;4.30;;
51810;SDS011;52468;40.116;18.296;2023-02-08T15:09:29;10.20;;;7.63;;
51810;SDS011;52468;40.116;18.296;2023-02-08T15:12:16;12.87;;;7.07;;
51810;SDS011;52468;40.116;18.296;2023-02-08T15:14:58;11.87;;;6.53;;
51810;SDS011;52468;40.116;18.296;2023-02-08T15:17:39;12.93;;;8.70;;
51810;SDS011;52468;40.116;18.296;2023-02-08T15:20:19;10.87;;;6.63;;
51810;SDS011;52468;40.116;18.296;2023-02-08T15:22:47;6.50;;;5.23;;
51810;SDS011;52468;40.116;18.296;2023-02-08T15:25:36;6.30;;;3.80;;
51810;SDS011;52468;40.116;18.296;2023-02-08T15:30:45;6.73;;;4.53;;
51810;SDS011;52468;40.116;18.296;2023-02-08T15:33:31;5.47;;;3.50;;
51810;SDS011;52468;40.116;18.296;2023-02-08T15:36:00;10.60;;;5.67;;
51810;SDS011;52468;40.116;18.296;2023-02-08T15:38:32;6.47;;;3.90;;
51810;SDS011;52468;40.116;18.296;2023-02-08T15:41:08;5.20;;;4.80;;
51810;SDS011;52468;40.116;18.296;2023-02-08T15:43:38;5.77;;;4.10;;
51810;SDS011;52468;40.116;18.296;2023-02-08T15:48:52;14.23;;;10.27;;
51810;SDS011;52468;40.116;18.296;2023-02-08T15:51:23;14.70;;;10.73;;
51810;SDS011;52468;40.116;18.296;2023-02-08T15:53:53;9.93;;;6.57;;
51810;SDS011;52468;40.116;18.296;2023-02-08T15:56:26;13.53;;;9.20;;
51810;SDS011;52468;40.116;18.296;2023-02-08T15:59:05;13.17;;;7.90;;
51810;SDS011;52468;40.116;18.296;2023-02-08T16:01:40;16.53;;;10.53;;
51810;SDS011;52468;40.116;18.296;2023-02-08T16:04:13;12.98;;;9.30;;
51810;SDS011;52468;40.116;18.296;2023-02-08T16:06:45;20.70;;;13.10;;
51810;SDS011;52468;40.116;18.296;2023-02-08T16:09:17;18.07;;;12.33;;
51810;SDS011;52468;40.116;18.296;2023-02-08T16:11:57;16.50;;;10.73;;
51810;SDS011;52468;40.116;18.296;2023-02-08T16:14:26;27.53;;;15.60;;
51810;SDS011;52468;40.116;18.296;2023-02-08T16:16:57;32.30;;;16.13;;
51810;SDS011;52468;40.116;18.296;2023-02-08T16:19:29;20.20;;;10.77;;
51810;SDS011;52468;40.116;18.296;2023-02-08T16:24:47;18.03;;;11.97;;
51810;SDS011;52468;40.116;18.296;2023-02-08T16:27:19;14.73;;;10.10;;
51810;SDS011;52468;40.116;18.296;2023-02-08T16:29:57;15.03;;;8.73;;
51810;SDS011;52468;40.116;18.296;2023-02-08T16:32:34;28.63;;;17.67;;
51810;SDS011;52468;40.116;18.296;2023-02-08T16:35:27;12.50;;;7.80;;
51810;SDS011;52468;40.116;18.296;2023-02-08T16:37:56;15.40;;;8.00;;
51810;SDS011;52468;40.116;18.296;2023-02-08T16:43:27;14.97;;;10.43;;
51810;SDS011;52468;40.116;18.296;2023-02-08T16:48:42;11.83;;;7.63;;
51810;SDS011;52468;40.116;18.296;2023-02-08T16:51:17;15.47;;;9.40;;
51810;SDS011;52468;40.116;18.296;2023-02-08T16:53:52;10.23;;;8.30;;
51810;SDS011;52468;40.116;18.296;2023-02-08T16:56:27;10.97;;;8.23;;
51810;SDS011;52468;40.116;18.296;2023-02-08T16:58:55;14.23;;;10.30;;
51810;SDS011;52468;40.116;18.296;2023-02-08T17:01:22;15.77;;;11.17;;
51810;SDS011;52468;40.116;18.296;2023-02-08T17:03:50;19.10;;;12.87;;
51810;SDS011;52468;40.116;18.296;2023-02-08T17:06:32;22.10;;;15.67;;
51810;SDS011;52468;40.116;18.296;2023-02-08T17:09:02;25.63;;;16.13;;
51810;SDS011;52468;40.116;18.296;2023-02-08T17:11:32;41.93;;;25.87;;
51810;SDS011;52468;40.116;18.296;2023-02-08T17:14:00;20.40;;;14.50;;
51810;SDS011;52468;40.116;18.296;2023-02-08T17:16:29;31.60;;;20.27;;
51810;SDS011;52468;40.116;18.296;2023-02-08T17:18:58;39.57;;;22.87;;
51810;SDS011;52468;40.116;18.296;2023-02-08T17:21:27;34.73;;;20.67;;
51810;SDS011;52468;40.116;18.296;2023-02-08T17:23:58;33.63;;;20.03;;